PAUNPAKK

Guest
Details From PAUN - Unalakleet
To PAKK - Koyuk ALFRED ADAMS
Flight Number -
Tags generated
Created
Modified
Stats Distance 64 nm / 118 km
Max Altitude 400 ft / 122 m
Waypoints 3
Social Downloads 1
Likes 0
Share VATSIM

Download

Looking for another format? Having issues loading an existing format? Contact us
Advertisement - Login to hide

Notes

Basic altitude profile: - Ascent Rate: 2500ft/min - Ascent Speed: 250kts - Cruise Altitude: 35000ft - Cruise Speed: 300kts - Descent Rate: 1500ft/min - Descent Speed: 250kts Options: - Use NATs: no - Use PACOTS: no - Use low airways: yes - Use high airways: no

Route

PAUN JNR PAKK

ID Type Via Altitude Latitude Longitude Leg Dist Tot Dist Heading (true) Name
O PAUN APT - 0 ft / 0 m 63.88659˚ -160.79693˚ - 0 nm - Unalakleet
JNR NDB - 400 ft / 122 m 63.90772˚ -160.81192˚ 1 nm 1 nm 343° / 343° NORTH RIVER NDB
O PAKK APT - 0 ft / 0 m 64.93907˚ -161.15474˚ 62 nm 63 nm 352° / 352° Koyuk ALFRED ADAMS

Altitude Profile

Advertisement - Login to hide

PAUN

Details ICAO PAUN (UNK)
Name Unalakleet
Region USA (Alaska)
Timezone America/Anchorage (UTC-9.0)
Stats Elevation 68 ft / 21 m (AMSL)
Location 63.886590° -160.796931°
Runways 2
Magnetic Variation 12.174° E

METAR

PAUN 170356Z AUTO 07009KT 10SM OVC048 M04/M05 A2925 RMK AO2 SLP908 T10391050 FZRANO

Decode

TAF

PAUN 162335Z 1700/1724 09012KT P6SM SCT025 BKN035 OVC050 FM171800 24006KT P6SM VCSH BKN025 OVC035

Decode

Departure Runways

ID Width Length Bearing (true) Bearing (mag) Surface Threshold Offset Overrun Length
15 151 ft / 46 m 5,990 ft / 1,826 m 164.15° 151.98° Asphalt 0 ft / 0 m 499 ft / 152 m
26 79 ft / 24 m 1,993 ft / 608 m 278.43° 266.26° Asphalt 0 ft / 0 m 0 ft / 0 m
33 151 ft / 46 m 5,990 ft / 1,826 m 344.16° 331.99° Asphalt 0 ft / 0 m 0 ft / 0 m
8 79 ft / 24 m 1,993 ft / 608 m 98.42° 86.25° Asphalt 0 ft / 0 m 0 ft / 0 m

PAKK

Details ICAO PAKK (KKA)
Name Koyuk ALFRED ADAMS
Region USA (Alaska)
Timezone America/Anchorage (UTC-9.0)
Stats Elevation 154 ft / 47 m (AMSL)
Location 64.939069° -161.154738°
Runways 1
Magnetic Variation 12.086° E

METAR

PAKK 170417Z AUTO 34004KT 9SM -SN OVC010 M04/M05 A2922 RMK AO2 SNB05 P0000 FZRANO

Decode

TAF

Not found

Destination Runways

ID Width Length Bearing (true) Bearing (mag) Surface Threshold Offset Overrun Length
01 59 ft / 18 m 3,003 ft / 915 m 23.94° 11.85° Gravel 0 ft / 0 m 0 ft / 0 m
19 59 ft / 18 m 3,003 ft / 915 m 203.95° 191.86° Gravel 0 ft / 0 m 200 ft / 61 m